Terminal Aerodrome Forecast
Issued by NWS

Current Version | Previous Version | Graphics & Text | Print | Product List | Glossary On
Versions: 1 2 3 4 5 6 7 8 9 10 11 12 13 14 15 16 17 18 19 20 21 22 23 24 25 26 27 28 29 30 31 32
000
FTUS41 KRLX 261000 AAA
TAFCKB
TAF AMD
KCKB 261009Z 2610/2706 VRB03KT 2SM -RA BR SCT002 OVC025
      TEMPO 2610/2612 1SM -RA BR BKN002
     FM261200 10004KT 3SM -RA BR SCT002 OVC025
     FM261600 09003KT 5SM -SN OVC018
     FM262000 36004KT 3SM -SN OVC010
     FM262100 33005KT 1SM -SN OVC005
     FM270000 31005KT 3SM -SN OVC010=

USA.gov is the U.S. government's official web portal to all federal, state and local government web resources and services.